sensor_id;sensor_type;location;lat;lon;timestamp;temperature;humidity
5134;DHT22;2585;48.696;10.066;2023-09-30T00:00:07;15.10;78.20
5134;DHT22;2585;48.696;10.066;2023-09-30T00:02:35;15.20;76.80
5134;DHT22;2585;48.696;10.066;2023-09-30T00:05:02;15.20;75.90
5134;DHT22;2585;48.696;10.066;2023-09-30T00:07:30;15.20;75.40
5134;DHT22;2585;48.696;10.066;2023-09-30T00:09:58;15.10;75.30
5134;DHT22;2585;48.696;10.066;2023-09-30T00:12:26;15.10;74.80
5134;DHT22;2585;48.696;10.066;2023-09-30T00:14:53;15.10;74.40
5134;DHT22;2585;48.696;10.066;2023-09-30T00:17:20;15.10;74.10
5134;DHT22;2585;48.696;10.066;2023-09-30T00:19:47;15.00;76.00
5134;DHT22;2585;48.696;10.066;2023-09-30T00:22:14;15.00;77.70
5134;DHT22;2585;48.696;10.066;2023-09-30T00:24:41;15.00;79.00
5134;DHT22;2585;48.696;10.066;2023-09-30T00:27:08;15.00;79.30
5134;DHT22;2585;48.696;10.066;2023-09-30T00:29:34;14.90;81.10
5134;DHT22;2585;48.696;10.066;2023-09-30T00:32:02;15.00;81.40
5134;DHT22;2585;48.696;10.066;2023-09-30T00:34:32;15.10;79.50
5134;DHT22;2585;48.696;10.066;2023-09-30T00:37:00;15.10;80.00
5134;DHT22;2585;48.696;10.066;2023-09-30T00:39:26;15.10;80.00
5134;DHT22;2585;48.696;10.066;2023-09-30T00:41:58;15.10;78.80
5134;DHT22;2585;48.696;10.066;2023-09-30T00:44:28;15.20;77.50
5134;DHT22;2585;48.696;10.066;2023-09-30T00:46:55;15.20;75.30
5134;DHT22;2585;48.696;10.066;2023-09-30T00:49:26;15.20;75.20
5134;DHT22;2585;48.696;10.066;2023-09-30T00:51:54;15.10;76.50
5134;DHT22;2585;48.696;10.066;2023-09-30T00:54:22;15.10;77.70
5134;DHT22;2585;48.696;10.066;2023-09-30T00:56:52;15.10;80.50
5134;DHT22;2585;48.696;10.066;2023-09-30T00:59:19;15.10;81.70
5134;DHT22;2585;48.696;10.066;2023-09-30T01:01:47;15.10;80.70
5134;DHT22;2585;48.696;10.066;2023-09-30T01:04:14;15.10;78.00
5134;DHT22;2585;48.696;10.066;2023-09-30T01:06:42;15.20;76.30
5134;DHT22;2585;48.696;10.066;2023-09-30T01:09:10;15.20;72.40
5134;DHT22;2585;48.696;10.066;2023-09-30T01:11:37;15.20;64.90
5134;DHT22;2585;48.696;10.066;2023-09-30T01:14:03;15.20;62.20
5134;DHT22;2585;48.696;10.066;2023-09-30T01:16:30;15.20;62.20
5134;DHT22;2585;48.696;10.066;2023-09-30T01:18:57;15.20;61.70
5134;DHT22;2585;48.696;10.066;2023-09-30T01:21:24;15.30;61.10
5134;DHT22;2585;48.696;10.066;2023-09-30T01:23:54;15.30;45.70
5134;DHT22;2585;48.696;10.066;2023-09-30T01:26:22;15.20;57.90
5134;DHT22;2585;48.696;10.066;2023-09-30T01:28:49;15.20;63.50
5134;DHT22;2585;48.696;10.066;2023-09-30T01:31:16;15.10;65.10
5134;DHT22;2585;48.696;10.066;2023-09-30T01:33:43;15.10;60.70
5134;DHT22;2585;48.696;10.066;2023-09-30T01:36:10;15.10;55.10
5134;DHT22;2585;48.696;10.066;2023-09-30T01:38:37;15.20;55.40
5134;DHT22;2585;48.696;10.066;2023-09-30T01:41:04;15.10;53.90
5134;DHT22;2585;48.696;10.066;2023-09-30T01:43:31;15.20;49.90
5134;DHT22;2585;48.696;10.066;2023-09-30T01:45:58;15.20;47.50
5134;DHT22;2585;48.696;10.066;2023-09-30T01:48:25;15.20;35.00
5134;DHT22;2585;48.696;10.066;2023-09-30T01:50:52;15.20;40.30
5134;DHT22;2585;48.696;10.066;2023-09-30T01:53:19;15.20;53.10
5134;DHT22;2585;48.696;10.066;2023-09-30T01:55:45;15.10;55.80
5134;DHT22;2585;48.696;10.066;2023-09-30T01:58:14;15.00;34.10
5134;DHT22;2585;48.696;10.066;2023-09-30T02:00:41;15.00;30.20
5134;DHT22;2585;48.696;10.066;2023-09-30T02:03:08;14.90;37.00
5134;DHT22;2585;48.696;10.066;2023-09-30T02:05:35;14.80;60.30
5134;DHT22;2585;48.696;10.066;2023-09-30T02:08:03;14.70;63.40
5134;DHT22;2585;48.696;10.066;2023-09-30T02:10:32;14.70;64.80
5134;DHT22;2585;48.696;10.066;2023-09-30T02:13:00;14.60;69.50
5134;DHT22;2585;48.696;10.066;2023-09-30T02:15:27;14.50;75.50
5134;DHT22;2585;48.696;10.066;2023-09-30T02:17:54;14.40;78.80
5134;DHT22;2585;48.696;10.066;2023-09-30T02:20:21;14.30;80.10
5134;DHT22;2585;48.696;10.066;2023-09-30T02:22:52;14.30;82.10
5134;DHT22;2585;48.696;10.066;2023-09-30T02:25:19;14.10;82.80
5134;DHT22;2585;48.696;10.066;2023-09-30T02:27:46;14.10;84.40
5134;DHT22;2585;48.696;10.066;2023-09-30T02:30:12;14.00;85.90
5134;DHT22;2585;48.696;10.066;2023-09-30T02:32:41;13.90;87.00
5134;DHT22;2585;48.696;10.066;2023-09-30T02:35:09;13.80;88.10
5134;DHT22;2585;48.696;10.066;2023-09-30T02:37:38;13.70;89.00
5134;DHT22;2585;48.696;10.066;2023-09-30T02:40:06;13.70;89.90
5134;DHT22;2585;48.696;10.066;2023-09-30T02:42:40;13.70;90.50
5134;DHT22;2585;48.696;10.066;2023-09-30T02:45:08;13.70;90.80
5134;DHT22;2585;48.696;10.066;2023-09-30T02:47:36;13.60;91.00
5134;DHT22;2585;48.696;10.066;2023-09-30T02:50:06;13.60;91.10
5134;DHT22;2585;48.696;10.066;2023-09-30T02:52:34;13.50;91.20
5134;DHT22;2585;48.696;10.066;2023-09-30T02:55:03;13.50;91.40
5134;DHT22;2585;48.696;10.066;2023-09-30T02:57:29;13.50;91.40
5134;DHT22;2585;48.696;10.066;2023-09-30T02:59:58;13.50;91.50
5134;DHT22;2585;48.696;10.066;2023-09-30T03:02:27;13.40;91.60
5134;DHT22;2585;48.696;10.066;2023-09-30T03:04:54;13.40;91.60
5134;DHT22;2585;48.696;10.066;2023-09-30T03:07:21;13.40;91.60
5134;DHT22;2585;48.696;10.066;2023-09-30T03:09:49;13.30;91.70
5134;DHT22;2585;48.696;10.066;2023-09-30T03:12:17;13.30;91.70
5134;DHT22;2585;48.696;10.066;2023-09-30T03:14:44;13.20;91.70
5134;DHT22;2585;48.696;10.066;2023-09-30T03:17:11;13.20;91.80
5134;DHT22;2585;48.696;10.066;2023-09-30T03:19:39;13.20;91.80
5134;DHT22;2585;48.696;10.066;2023-09-30T03:22:06;13.10;91.90
5134;DHT22;2585;48.696;10.066;2023-09-30T03:24:39;13.10;91.90
5134;DHT22;2585;48.696;10.066;2023-09-30T03:27:07;13.20;92.00
5134;DHT22;2585;48.696;10.066;2023-09-30T03:29:37;13.20;92.10
5134;DHT22;2585;48.696;10.066;2023-09-30T03:32:07;13.20;92.10
5134;DHT22;2585;48.696;10.066;2023-09-30T03:34:34;13.20;92.20
5134;DHT22;2585;48.696;10.066;2023-09-30T03:37:03;13.20;92.20
5134;DHT22;2585;48.696;10.066;2023-09-30T03:39:33;13.20;92.20
5134;DHT22;2585;48.696;10.066;2023-09-30T03:42:00;13.20;92.20
5134;DHT22;2585;48.696;10.066;2023-09-30T03:44:27;13.10;92.20
5134;DHT22;2585;48.696;10.066;2023-09-30T03:46:54;13.20;92.20
5134;DHT22;2585;48.696;10.066;2023-09-30T03:49:21;13.20;92.30
5134;DHT22;2585;48.696;10.066;2023-09-30T03:51:48;13.30;92.30
5134;DHT22;2585;48.696;10.066;2023-09-30T03:54:17;13.30;92.30
5134;DHT22;2585;48.696;10.066;2023-09-30T03:56:47;13.30;92.40
5134;DHT22;2585;48.696;10.066;2023-09-30T03:59:14;13.30;92.40
5134;DHT22;2585;48.696;10.066;2023-09-30T04:01:42;13.30;92.40
5134;DHT22;2585;48.696;10.066;2023-09-30T04:04:09;13.20;92.40
5134;DHT22;2585;48.696;10.066;2023-09-30T04:06:37;13.20;92.40
5134;DHT22;2585;48.696;10.066;2023-09-30T04:09:07;13.20;92.40
5134;DHT22;2585;48.696;10.066;2023-09-30T04:11:37;13.20;92.40
5134;DHT22;2585;48.696;10.066;2023-09-30T04:14:06;13.20;92.40
5134;DHT22;2585;48.696;10.066;2023-09-30T04:16:33;13.20;92.40
5134;DHT22;2585;48.696;10.066;2023-09-30T04:19:00;13.20;92.40
5134;DHT22;2585;48.696;10.066;2023-09-30T04:21:27;13.10;92.30
5134;DHT22;2585;48.696;10.066;2023-09-30T04:23:55;13.10;92.30
5134;DHT22;2585;48.696;10.066;2023-09-30T04:26:22;13.10;92.30
5134;DHT22;2585;48.696;10.066;2023-09-30T04:28:49;13.10;92.30
5134;DHT22;2585;48.696;10.066;2023-09-30T04:31:16;13.00;92.30
5134;DHT22;2585;48.696;10.066;2023-09-30T04:33:43;13.10;92.30
5134;DHT22;2585;48.696;10.066;2023-09-30T04:36:10;13.00;92.30
5134;DHT22;2585;48.696;10.066;2023-09-30T04:38:37;13.00;92.30
5134;DHT22;2585;48.696;10.066;2023-09-30T04:41:04;13.00;92.30
5134;DHT22;2585;48.696;10.066;2023-09-30T04:43:34;13.00;92.30
5134;DHT22;2585;48.696;10.066;2023-09-30T04:46:01;12.90;92.30
5134;DHT22;2585;48.696;10.066;2023-09-30T04:48:28;12.90;92.30
5134;DHT22;2585;48.696;10.066;2023-09-30T04:50:55;12.90;92.30
5134;DHT22;2585;48.696;10.066;2023-09-30T04:53:22;12.90;92.30
5134;DHT22;2585;48.696;10.066;2023-09-30T04:55:49;12.90;92.40
5134;DHT22;2585;48.696;10.066;2023-09-30T04:58:17;12.90;92.40
5134;DHT22;2585;48.696;10.066;2023-09-30T05:00:45;12.90;92.40
5134;DHT22;2585;48.696;10.066;2023-09-30T05:03:12;12.80;92.30
5134;DHT22;2585;48.696;10.066;2023-09-30T05:05:39;12.80;92.30
5134;DHT22;2585;48.696;10.066;2023-09-30T05:08:06;12.80;92.40
5134;DHT22;2585;48.696;10.066;2023-09-30T05:10:33;12.70;92.30
5134;DHT22;2585;48.696;10.066;2023-09-30T05:13:00;12.70;92.30
5134;DHT22;2585;48.696;10.066;2023-09-30T05:15:27;12.60;92.30
5134;DHT22;2585;48.696;10.066;2023-09-30T05:17:56;12.50;92.30
5134;DHT22;2585;48.696;10.066;2023-09-30T05:20:23;12.50;92.30
5134;DHT22;2585;48.696;10.066;2023-09-30T05:22:51;12.40;92.30
5134;DHT22;2585;48.696;10.066;2023-09-30T05:25:17;12.30;92.20
5134;DHT22;2585;48.696;10.066;2023-09-30T05:27:45;12.30;92.20
5134;DHT22;2585;48.696;10.066;2023-09-30T05:30:15;12.30;92.20
5134;DHT22;2585;48.696;10.066;2023-09-30T05:32:42;12.30;92.20
5134;DHT22;2585;48.696;10.066;2023-09-30T05:35:09;12.20;92.20
5134;DHT22;2585;48.696;10.066;2023-09-30T05:37:40;12.10;92.20
5134;DHT22;2585;48.696;10.066;2023-09-30T05:40:08;12.10;92.20
5134;DHT22;2585;48.696;10.066;2023-09-30T05:42:54;12.10;92.20
5134;DHT22;2585;48.696;10.066;2023-09-30T05:45:24;12.10;92.20
5134;DHT22;2585;48.696;10.066;2023-09-30T05:47:54;12.00;92.10
5134;DHT22;2585;48.696;10.066;2023-09-30T05:50:23;12.10;92.20
5134;DHT22;2585;48.696;10.066;2023-09-30T05:52:54;12.10;92.20
5134;DHT22;2585;48.696;10.066;2023-09-30T05:55:22;12.10;92.20
5134;DHT22;2585;48.696;10.066;2023-09-30T05:57:49;12.10;92.20
5134;DHT22;2585;48.696;10.066;2023-09-30T06:00:17;12.10;92.20
5134;DHT22;2585;48.696;10.066;2023-09-30T06:02:48;12.20;92.20
5134;DHT22;2585;48.696;10.066;2023-09-30T06:05:15;12.20;92.20
5134;DHT22;2585;48.696;10.066;2023-09-30T06:07:42;12.10;92.20
5134;DHT22;2585;48.696;10.066;2023-09-30T06:10:12;12.20;92.20
5134;DHT22;2585;48.696;10.066;2023-09-30T06:12:39;12.20;92.20
5134;DHT22;2585;48.696;10.066;2023-09-30T06:15:07;12.30;92.20
5134;DHT22;2585;48.696;10.066;2023-09-30T06:17:34;12.40;92.30
5134;DHT22;2585;48.696;10.066;2023-09-30T06:20:04;12.40;92.30
5134;DHT22;2585;48.696;10.066;2023-09-30T06:22:35;12.50;92.30
5134;DHT22;2585;48.696;10.066;2023-09-30T06:25:02;12.60;92.40
5134;DHT22;2585;48.696;10.066;2023-09-30T06:27:30;12.70;92.40
5134;DHT22;2585;48.696;10.066;2023-09-30T06:29:57;12.70;92.40
5134;DHT22;2585;48.696;10.066;2023-09-30T06:32:24;12.70;92.40
5134;DHT22;2585;48.696;10.066;2023-09-30T06:34:51;12.90;92.50
5134;DHT22;2585;48.696;10.066;2023-09-30T06:37:19;13.00;92.50
5134;DHT22;2585;48.696;10.066;2023-09-30T06:39:47;13.00;92.50
5134;DHT22;2585;48.696;10.066;2023-09-30T06:42:15;13.00;92.50
5134;DHT22;2585;48.696;10.066;2023-09-30T06:44:41;13.10;92.50
5134;DHT22;2585;48.696;10.066;2023-09-30T06:47:08;13.10;92.50
5134;DHT22;2585;48.696;10.066;2023-09-30T06:49:39;13.10;92.50
5134;DHT22;2585;48.696;10.066;2023-09-30T06:52:06;13.20;92.50
5134;DHT22;2585;48.696;10.066;2023-09-30T06:54:34;13.20;92.50
5134;DHT22;2585;48.696;10.066;2023-09-30T06:57:01;13.30;92.50
5134;DHT22;2585;48.696;10.066;2023-09-30T06:59:27;13.40;92.50
5134;DHT22;2585;48.696;10.066;2023-09-30T07:01:54;13.50;92.60
5134;DHT22;2585;48.696;10.066;2023-09-30T07:04:21;13.70;92.60
5134;DHT22;2585;48.696;10.066;2023-09-30T07:06:48;13.80;92.60
5134;DHT22;2585;48.696;10.066;2023-09-30T07:09:15;14.00;92.60
5134;DHT22;2585;48.696;10.066;2023-09-30T07:11:43;14.20;92.70
5134;DHT22;2585;48.696;10.066;2023-09-30T07:14:10;14.20;92.60
5134;DHT22;2585;48.696;10.066;2023-09-30T07:16:37;14.40;92.60
5134;DHT22;2585;48.696;10.066;2023-09-30T07:19:06;14.60;92.60
5134;DHT22;2585;48.696;10.066;2023-09-30T07:21:33;14.90;92.60
5134;DHT22;2585;48.696;10.066;2023-09-30T07:24:00;15.10;92.50
5134;DHT22;2585;48.696;10.066;2023-09-30T07:26:27;15.10;91.90
5134;DHT22;2585;48.696;10.066;2023-09-30T07:28:54;15.10;91.60
5134;DHT22;2585;48.696;10.066;2023-09-30T07:31:23;15.20;91.40
5134;DHT22;2585;48.696;10.066;2023-09-30T07:33:50;15.20;91.00
5134;DHT22;2585;48.696;10.066;2023-09-30T07:36:17;15.30;90.50
5134;DHT22;2585;48.696;10.066;2023-09-30T07:38:44;15.40;90.00
5134;DHT22;2585;48.696;10.066;2023-09-30T07:41:11;15.50;87.90
5134;DHT22;2585;48.696;10.066;2023-09-30T07:43:38;15.50;86.40
5134;DHT22;2585;48.696;10.066;2023-09-30T07:46:08;15.50;81.20
5134;DHT22;2585;48.696;10.066;2023-09-30T07:48:35;15.70;81.80
5134;DHT22;2585;48.696;10.066;2023-09-30T07:51:02;15.80;76.10
5134;DHT22;2585;48.696;10.066;2023-09-30T07:53:29;16.10;64.90
5134;DHT22;2585;48.696;10.066;2023-09-30T07:55:55;16.20;37.40
5134;DHT22;2585;48.696;10.066;2023-09-30T07:58:23;16.30;8.00
5134;DHT22;2585;48.696;10.066;2023-09-30T08:00:50;16.30;10.30
5134;DHT22;2585;48.696;10.066;2023-09-30T08:03:17;16.20;1.00
5134;DHT22;2585;48.696;10.066;2023-09-30T08:05:44;16.10;1.00
5134;DHT22;2585;48.696;10.066;2023-09-30T08:08:13;16.20;1.00
5134;DHT22;2585;48.696;10.066;2023-09-30T08:10:42;16.50;1.00
5134;DHT22;2585;48.696;10.066;2023-09-30T08:13:09;16.40;90.80
5134;DHT22;2585;48.696;10.066;2023-09-30T08:15:36;16.30;74.70
5134;DHT22;2585;48.696;10.066;2023-09-30T08:18:03;16.40;43.10
5134;DHT22;2585;48.696;10.066;2023-09-30T08:20:32;16.60;1.00
5134;DHT22;2585;48.696;10.066;2023-09-30T08:22:59;16.60;1.00
5134;DHT22;2585;48.696;10.066;2023-09-30T08:25:26;16.50;88.40
5134;DHT22;2585;48.696;10.066;2023-09-30T08:27:53;16.50;67.10
5134;DHT22;2585;48.696;10.066;2023-09-30T08:30:21;16.60;1.00
5134;DHT22;2585;48.696;10.066;2023-09-30T08:32:48;16.70;68.40
5134;DHT22;2585;48.696;10.066;2023-09-30T08:35:15;16.80;1.00
5134;DHT22;2585;48.696;10.066;2023-09-30T08:37:42;16.90;1.00
5134;DHT22;2585;48.696;10.066;2023-09-30T08:40:09;17.00;1.00
5134;DHT22;2585;48.696;10.066;2023-09-30T08:42:39;17.60;15.00
5134;DHT22;2585;48.696;10.066;2023-09-30T08:45:10;18.00;64.00
5134;DHT22;2585;48.696;10.066;2023-09-30T08:47:37;18.40;1.00
5134;DHT22;2585;48.696;10.066;2023-09-30T08:50:07;18.50;85.50
5134;DHT22;2585;48.696;10.066;2023-09-30T08:52:39;18.50;25.80
5134;DHT22;2585;48.696;10.066;2023-09-30T08:55:11;18.20;1.00
5134;DHT22;2585;48.696;10.066;2023-09-30T08:57:42;18.30;1.00
5134;DHT22;2585;48.696;10.066;2023-09-30T09:00:13;18.70;1.00
5134;DHT22;2585;48.696;10.066;2023-09-30T09:02:41;19.00;94.40
5134;DHT22;2585;48.696;10.066;2023-09-30T09:05:08;19.30;80.00
5134;DHT22;2585;48.696;10.066;2023-09-30T09:07:39;19.20;1.00
5134;DHT22;2585;48.696;10.066;2023-09-30T09:10:07;19.00;1.00
5134;DHT22;2585;48.696;10.066;2023-09-30T09:12:38;18.80;1.00
5134;DHT22;2585;48.696;10.066;2023-09-30T09:15:07;18.90;1.00
5134;DHT22;2585;48.696;10.066;2023-09-30T09:17:44;19.30;94.00
5134;DHT22;2585;48.696;10.066;2023-09-30T09:20:17;19.60;86.60
5134;DHT22;2585;48.696;10.066;2023-09-30T09:22:51;19.60;69.50
5134;DHT22;2585;48.696;10.066;2023-09-30T09:25:21;19.50;37.30
5134;DHT22;2585;48.696;10.066;2023-09-30T09:27:52;20.10;32.50
5134;DHT22;2585;48.696;10.066;2023-09-30T09:32:58;20.60;2.60
5134;DHT22;2585;48.696;10.066;2023-09-30T09:35:25;20.00;1.00
5134;DHT22;2585;48.696;10.066;2023-09-30T09:40:27;19.40;1.00
5134;DHT22;2585;48.696;10.066;2023-09-30T09:42:55;19.30;1.00
5134;DHT22;2585;48.696;10.066;2023-09-30T09:45:25;19.20;1.00
5134;DHT22;2585;48.696;10.066;2023-09-30T09:47:53;20.00;1.00
5134;DHT22;2585;48.696;10.066;2023-09-30T09:50:22;20.30;1.00
5134;DHT22;2585;48.696;10.066;2023-09-30T09:52:53;20.90;1.00
5134;DHT22;2585;48.696;10.066;2023-09-30T09:55:26;21.20;93.30
5134;DHT22;2585;48.696;10.066;2023-09-30T09:57:54;21.80;90.60
5134;DHT22;2585;48.696;10.066;2023-09-30T10:00:25;21.40;75.90
5134;DHT22;2585;48.696;10.066;2023-09-30T10:02:52;21.50;66.80
5134;DHT22;2585;48.696;10.066;2023-09-30T10:05:20;21.60;60.90
5134;DHT22;2585;48.696;10.066;2023-09-30T10:08:00;22.00;56.60
5134;DHT22;2585;48.696;10.066;2023-09-30T10:10:28;22.30;40.50
5134;DHT22;2585;48.696;10.066;2023-09-30T10:12:55;22.60;20.90
5134;DHT22;2585;48.696;10.066;2023-09-30T10:20:39;20.90;1.00
5134;DHT22;2585;48.696;10.066;2023-09-30T10:25:46;20.50;1.00
5134;DHT22;2585;48.696;10.066;2023-09-30T10:36:39;19.90;1.00
5134;DHT22;2585;48.696;10.066;2023-09-30T10:39:11;19.70;1.00
5134;DHT22;2585;48.696;10.066;2023-09-30T10:51:59;19.70;1.00
5134;DHT22;2585;48.696;10.066;2023-09-30T10:54:32;19.30;1.00
5134;DHT22;2585;48.696;10.066;2023-09-30T10:57:00;19.60;1.00
5134;DHT22;2585;48.696;10.066;2023-09-30T10:59:29;19.40;1.00
5134;DHT22;2585;48.696;10.066;2023-09-30T11:01:57;19.20;1.00
5134;DHT22;2585;48.696;10.066;2023-09-30T11:04:24;18.90;1.00
5134;DHT22;2585;48.696;10.066;2023-09-30T11:06:54;19.00;1.00
5134;DHT22;2585;48.696;10.066;2023-09-30T11:09:22;19.50;1.00
5134;DHT22;2585;48.696;10.066;2023-09-30T11:11:51;19.70;1.00
5134;DHT22;2585;48.696;10.066;2023-09-30T11:14:30;21.00;1.00
5134;DHT22;2585;48.696;10.066;2023-09-30T11:16:59;21.60;77.70
5134;DHT22;2585;48.696;10.066;2023-09-30T11:19:45;22.40;75.30
5134;DHT22;2585;48.696;10.066;2023-09-30T11:22:14;22.40;65.30
5134;DHT22;2585;48.696;10.066;2023-09-30T11:24:42;21.80;54.30
5134;DHT22;2585;48.696;10.066;2023-09-30T11:27:09;21.40;49.40
5134;DHT22;2585;48.696;10.066;2023-09-30T11:29:35;20.70;41.80
5134;DHT22;2585;48.696;10.066;2023-09-30T11:32:03;20.30;36.50
5134;DHT22;2585;48.696;10.066;2023-09-30T11:34:34;20.30;52.90
5134;DHT22;2585;48.696;10.066;2023-09-30T11:37:01;20.20;60.30
5134;DHT22;2585;48.696;10.066;2023-09-30T11:39:30;20.10;61.90
5134;DHT22;2585;48.696;10.066;2023-09-30T11:41:57;20.20;67.40
5134;DHT22;2585;48.696;10.066;2023-09-30T11:44:25;20.10;68.20
5134;DHT22;2585;48.696;10.066;2023-09-30T11:46:54;20.00;68.70
5134;DHT22;2585;48.696;10.066;2023-09-30T11:51:54;19.90;64.80
5134;DHT22;2585;48.696;10.066;2023-09-30T11:54:21;19.90;66.60
5134;DHT22;2585;48.696;10.066;2023-09-30T11:56:49;20.20;67.80
5134;DHT22;2585;48.696;10.066;2023-09-30T11:59:17;20.40;66.50
5134;DHT22;2585;48.696;10.066;2023-09-30T12:01:46;20.80;67.90
5134;DHT22;2585;48.696;10.066;2023-09-30T12:04:32;21.50;60.00
5134;DHT22;2585;48.696;10.066;2023-09-30T12:06:59;22.20;38.70
5134;DHT22;2585;48.696;10.066;2023-09-30T12:09:26;22.90;35.00
5134;DHT22;2585;48.696;10.066;2023-09-30T12:11:54;21.80;1.00
5134;DHT22;2585;48.696;10.066;2023-09-30T12:14:22;21.70;1.00
5134;DHT22;2585;48.696;10.066;2023-09-30T12:16:49;21.70;1.00
5134;DHT22;2585;48.696;10.066;2023-09-30T12:19:17;22.00;1.00
5134;DHT22;2585;48.696;10.066;2023-09-30T12:21:45;22.30;1.00
5134;DHT22;2585;48.696;10.066;2023-09-30T12:24:15;22.20;1.00
5134;DHT22;2585;48.696;10.066;2023-09-30T12:26:44;22.30;1.00
5134;DHT22;2585;48.696;10.066;2023-09-30T12:29:15;22.30;1.00
5134;DHT22;2585;48.696;10.066;2023-09-30T12:31:49;23.00;1.00
5134;DHT22;2585;48.696;10.066;2023-09-30T12:34:20;23.00;1.00
5134;DHT22;2585;48.696;10.066;2023-09-30T12:36:49;22.80;1.00
5134;DHT22;2585;48.696;10.066;2023-09-30T12:39:16;23.30;1.00
5134;DHT22;2585;48.696;10.066;2023-09-30T12:41:44;23.20;1.00
5134;DHT22;2585;48.696;10.066;2023-09-30T12:44:13;23.50;1.00
5134;DHT22;2585;48.696;10.066;2023-09-30T12:46:40;23.80;1.00
5134;DHT22;2585;48.696;10.066;2023-09-30T12:49:07;23.50;1.00
5134;DHT22;2585;48.696;10.066;2023-09-30T12:51:35;23.60;1.00
5134;DHT22;2585;48.696;10.066;2023-09-30T12:54:05;23.30;1.00
5134;DHT22;2585;48.696;10.066;2023-09-30T12:56:32;23.60;1.00
5134;DHT22;2585;48.696;10.066;2023-09-30T12:58:59;23.50;1.00
5134;DHT22;2585;48.696;10.066;2023-09-30T13:01:26;23.20;1.00
5134;DHT22;2585;48.696;10.066;2023-09-30T13:03:55;23.20;1.00
5134;DHT22;2585;48.696;10.066;2023-09-30T13:06:23;23.70;1.00
5134;DHT22;2585;48.696;10.066;2023-09-30T13:08:49;23.40;1.00
5134;DHT22;2585;48.696;10.066;2023-09-30T13:11:16;23.70;1.00
5134;DHT22;2585;48.696;10.066;2023-09-30T13:13:44;23.30;1.00
5134;DHT22;2585;48.696;10.066;2023-09-30T13:16:12;22.60;1.00
5134;DHT22;2585;48.696;10.066;2023-09-30T13:18:39;22.20;1.00
5134;DHT22;2585;48.696;10.066;2023-09-30T13:21:06;22.00;1.00
5134;DHT22;2585;48.696;10.066;2023-09-30T13:23:34;21.50;1.00
5134;DHT22;2585;48.696;10.066;2023-09-30T13:26:01;22.00;1.00
5134;DHT22;2585;48.696;10.066;2023-09-30T13:28:29;22.00;1.00
5134;DHT22;2585;48.696;10.066;2023-09-30T13:30:56;22.20;1.00
5134;DHT22;2585;48.696;10.066;2023-09-30T13:33:24;22.30;1.00
5134;DHT22;2585;48.696;10.066;2023-09-30T13:35:50;22.70;1.00
5134;DHT22;2585;48.696;10.066;2023-09-30T13:38:17;22.60;1.00
5134;DHT22;2585;48.696;10.066;2023-09-30T13:40:44;22.50;1.00
5134;DHT22;2585;48.696;10.066;2023-09-30T13:43:12;22.00;1.00
5134;DHT22;2585;48.696;10.066;2023-09-30T13:48:07;22.00;1.00
5134;DHT22;2585;48.696;10.066;2023-09-30T13:50:34;21.70;1.00
5134;DHT22;2585;48.696;10.066;2023-09-30T13:53:01;21.40;1.00
5134;DHT22;2585;48.696;10.066;2023-09-30T13:55:29;22.00;1.00
5134;DHT22;2585;48.696;10.066;2023-09-30T13:57:56;21.90;1.00
5134;DHT22;2585;48.696;10.066;2023-09-30T14:00:23;21.80;1.00
5134;DHT22;2585;48.696;10.066;2023-09-30T14:02:50;21.90;1.00
5134;DHT22;2585;48.696;10.066;2023-09-30T14:05:18;22.20;1.00
5134;DHT22;2585;48.696;10.066;2023-09-30T14:07:45;22.40;1.00
5134;DHT22;2585;48.696;10.066;2023-09-30T14:10:12;22.10;1.00
5134;DHT22;2585;48.696;10.066;2023-09-30T14:12:40;22.00;1.00
5134;DHT22;2585;48.696;10.066;2023-09-30T14:15:07;21.80;1.00
5134;DHT22;2585;48.696;10.066;2023-09-30T14:17:35;21.70;1.00
5134;DHT22;2585;48.696;10.066;2023-09-30T14:20:02;21.50;1.00
5134;DHT22;2585;48.696;10.066;2023-09-30T14:22:33;21.00;1.00
5134;DHT22;2585;48.696;10.066;2023-09-30T14:25:00;20.80;1.00
5134;DHT22;2585;48.696;10.066;2023-09-30T14:27:27;20.50;1.00
5134;DHT22;2585;48.696;10.066;2023-09-30T14:29:54;20.40;1.00
5134;DHT22;2585;48.696;10.066;2023-09-30T14:32:21;20.50;1.00
5134;DHT22;2585;48.696;10.066;2023-09-30T14:34:49;20.40;1.00
5134;DHT22;2585;48.696;10.066;2023-09-30T14:37:16;20.50;1.00
5134;DHT22;2585;48.696;10.066;2023-09-30T14:39:44;20.40;1.00
5134;DHT22;2585;48.696;10.066;2023-09-30T14:42:11;20.20;1.00
5134;DHT22;2585;48.696;10.066;2023-09-30T14:44:39;20.30;1.00
5134;DHT22;2585;48.696;10.066;2023-09-30T14:47:06;20.10;1.00
5134;DHT22;2585;48.696;10.066;2023-09-30T14:49:33;20.00;1.00
5134;DHT22;2585;48.696;10.066;2023-09-30T14:52:00;20.00;1.00
5134;DHT22;2585;48.696;10.066;2023-09-30T14:54:27;20.00;1.00
5134;DHT22;2585;48.696;10.066;2023-09-30T14:56:53;19.90;1.00
5134;DHT22;2585;48.696;10.066;2023-09-30T14:59:21;19.80;1.00
5134;DHT22;2585;48.696;10.066;2023-09-30T15:01:48;19.70;1.00
5134;DHT22;2585;48.696;10.066;2023-09-30T15:04:16;19.70;1.00
5134;DHT22;2585;48.696;10.066;2023-09-30T15:06:43;19.60;1.00
5134;DHT22;2585;48.696;10.066;2023-09-30T15:09:10;19.60;1.00
5134;DHT22;2585;48.696;10.066;2023-09-30T15:11:38;19.40;1.00
5134;DHT22;2585;48.696;10.066;2023-09-30T15:14:06;19.40;1.00
5134;DHT22;2585;48.696;10.066;2023-09-30T15:16:33;19.20;1.00
5134;DHT22;2585;48.696;10.066;2023-09-30T15:19:02;19.10;1.00
5134;DHT22;2585;48.696;10.066;2023-09-30T15:21:29;18.90;1.00
5134;DHT22;2585;48.696;10.066;2023-09-30T15:23:56;18.80;1.00
5134;DHT22;2585;48.696;10.066;2023-09-30T15:26:23;18.70;1.00
5134;DHT22;2585;48.696;10.066;2023-09-30T15:28:49;18.70;1.00
5134;DHT22;2585;48.696;10.066;2023-09-30T15:38:04;18.40;1.00
5134;DHT22;2585;48.696;10.066;2023-09-30T15:40:31;18.40;1.00
5134;DHT22;2585;48.696;10.066;2023-09-30T15:42:58;18.30;5.00
5134;DHT22;2585;48.696;10.066;2023-09-30T15:45:26;18.30;23.50
5134;DHT22;2585;48.696;10.066;2023-09-30T15:47:52;18.30;42.80
5134;DHT22;2585;48.696;10.066;2023-09-30T15:50:19;18.20;58.10
5134;DHT22;2585;48.696;10.066;2023-09-30T15:52:46;18.10;62.50
5134;DHT22;2585;48.696;10.066;2023-09-30T15:55:16;18.00;73.50
5134;DHT22;2585;48.696;10.066;2023-09-30T15:57:43;18.00;79.10
5134;DHT22;2585;48.696;10.066;2023-09-30T16:00:11;18.00;84.40
5134;DHT22;2585;48.696;10.066;2023-09-30T16:02:38;17.80;88.80
5134;DHT22;2585;48.696;10.066;2023-09-30T16:05:05;17.70;93.00
5134;DHT22;2585;48.696;10.066;2023-09-30T16:07:32;17.70;1.00
5134;DHT22;2585;48.696;10.066;2023-09-30T16:09:59;17.60;1.00
5134;DHT22;2585;48.696;10.066;2023-09-30T16:12:26;17.50;1.00
5134;DHT22;2585;48.696;10.066;2023-09-30T16:14:53;17.40;1.00
5134;DHT22;2585;48.696;10.066;2023-09-30T16:17:20;17.30;1.00
5134;DHT22;2585;48.696;10.066;2023-09-30T16:19:47;17.30;1.00
5134;DHT22;2585;48.696;10.066;2023-09-30T16:22:14;17.00;16.80
5134;DHT22;2585;48.696;10.066;2023-09-30T16:24:40;17.10;23.40
5134;DHT22;2585;48.696;10.066;2023-09-30T16:27:07;17.00;75.00
5134;DHT22;2585;48.696;10.066;2023-09-30T16:29:34;16.80;1.00
5134;DHT22;2585;48.696;10.066;2023-09-30T16:32:02;16.60;65.50
5134;DHT22;2585;48.696;10.066;2023-09-30T16:34:28;16.50;1.00
5134;DHT22;2585;48.696;10.066;2023-09-30T16:36:55;16.40;27.90
5134;DHT22;2585;48.696;10.066;2023-09-30T16:39:22;16.30;72.20